createdAt,value
2022-12-13T00:00:47.526Z,6.35
2022-12-13T00:03:23.087Z,6.57
2022-12-13T00:05:58.579Z,6.75
2022-12-13T00:08:32.861Z,11.52
2022-12-13T00:11:08.483Z,7.38
2022-12-13T00:13:47.029Z,4.95
2022-12-13T00:16:32.411Z,6.13
2022-12-13T00:19:13.196Z,10.65
2022-12-13T00:21:48.760Z,4.05
2022-12-13T00:24:23.636Z,5.43
2022-12-13T00:26:58.068Z,5.95
2022-12-13T00:29:34.422Z,4.53
2022-12-13T00:32:08.568Z,9.73
2022-12-13T00:34:47.696Z,9.63
2022-12-13T00:37:22.329Z,5.43
2022-12-13T00:40:02.454Z,6.38
2022-12-13T00:42:43.421Z,6.28
2022-12-13T00:45:47.141Z,5.75
2022-12-13T00:48:24.464Z,5.68
2022-12-13T00:50:58.786Z,4.70
2022-12-13T00:53:36.303Z,4.13
2022-12-13T00:56:18.630Z,4.95
2022-12-13T00:58:52.626Z,7.63
2022-12-13T01:01:30.199Z,6.60
2022-12-13T01:04:06.713Z,8.10
2022-12-13T01:06:42.559Z,3.97
2022-12-13T01:09:20.090Z,3.70
2022-12-13T01:11:58.936Z,6.85
2022-12-13T01:14:33.053Z,5.57
2022-12-13T01:17:08.795Z,6.10
2022-12-13T01:19:42.890Z,8.27
2022-12-13T01:22:16.804Z,4.35
2022-12-13T01:24:50.990Z,3.47
2022-12-13T01:27:25.347Z,8.65
2022-12-13T01:29:59.273Z,6.72
2022-12-13T01:32:34.582Z,6.25
2022-12-13T01:35:09.443Z,4.95
2022-12-13T01:37:43.402Z,5.03
2022-12-13T01:40:17.515Z,6.35
2022-12-13T01:42:51.382Z,4.28
2022-12-13T01:45:29.269Z,5.38
2022-12-13T01:48:06.964Z,5.65
2022-12-13T01:50:44.914Z,5.50
2022-12-13T01:53:23.238Z,7.78
2022-12-13T01:56:03.155Z,7.43
2022-12-13T01:58:39.568Z,7.63
2022-12-13T02:01:13.495Z,5.40
2022-12-13T02:03:49.340Z,3.40
2022-12-13T02:06:30.370Z,4.57
2022-12-13T02:09:07.410Z,5.35
2022-12-13T02:11:44.887Z,8.07
2022-12-13T02:14:19.220Z,3.80
2022-12-13T02:20:12.508Z,2.88
2022-12-13T02:23:15.550Z,4.93
2022-12-13T02:26:08.472Z,6.80
2022-12-13T02:28:57.892Z,8.52
2022-12-13T02:31:39.952Z,4.20
2022-12-13T02:34:19.996Z,4.15
2022-12-13T02:37:03.305Z,5.10
2022-12-13T02:39:42.731Z,5.38
2022-12-13T02:42:21.841Z,3.58
2022-12-13T02:45:01.472Z,6.80
2022-12-13T02:47:43.518Z,5.30
2022-12-13T02:50:17.907Z,7.72
2022-12-13T02:52:52.801Z,6.00
2022-12-13T02:55:28.394Z,6.20
2022-12-13T02:58:02.590Z,4.10
2022-12-13T03:00:45.197Z,5.75
2022-12-13T03:03:33.309Z,6.38
2022-12-13T03:06:36.240Z,6.03
2022-12-13T03:09:27.268Z,8.02
2022-12-13T03:12:32.338Z,5.75
2022-12-13T03:15:17.471Z,5.30
2022-12-13T03:17:55.400Z,2.97
2022-12-13T03:20:31.411Z,5.60
2022-12-13T03:23:05.303Z,3.83
2022-12-13T03:28:13.879Z,4.88
2022-12-13T03:30:47.843Z,5.85
2022-12-13T03:33:22.222Z,3.65
2022-12-13T03:35:58.352Z,3.47
2022-12-13T03:38:32.413Z,5.38
2022-12-13T03:41:10.005Z,4.82
2022-12-13T03:43:44.282Z,3.88
2022-12-13T03:46:18.263Z,3.97
2022-12-13T03:48:52.351Z,4.65
2022-12-13T03:51:27.783Z,6.75
2022-12-13T03:54:01.658Z,4.57
2022-12-13T03:59:10.607Z,3.95
2022-12-13T04:01:44.765Z,4.63
2022-12-13T04:04:18.751Z,3.85
2022-12-13T04:09:27.484Z,3.92
2022-12-13T04:14:51.639Z,4.05
2022-12-13T04:19:58.977Z,5.18
2022-12-13T04:25:08.142Z,3.75
2022-12-13T04:27:42.553Z,4.43
2022-12-13T04:32:50.028Z,3.97
2022-12-13T04:37:58.959Z,3.10
2022-12-13T04:40:32.735Z,3.90
2022-12-13T04:45:40.165Z,3.47
2022-12-13T04:48:30.512Z,5.85
2022-12-13T04:51:05.814Z,3.17
2022-12-13T04:53:41.056Z,7.00
2022-12-13T04:56:14.933Z,7.60
2022-12-13T05:01:22.472Z,7.83
2022-12-13T05:03:56.296Z,5.15
2022-12-13T05:09:05.123Z,10.27
2022-12-13T05:11:46.229Z,4.93
2022-12-13T05:14:23.423Z,6.53
2022-12-13T05:16:57.759Z,11.23
2022-12-13T05:19:31.982Z,4.30
2022-12-13T05:22:05.877Z,6.68
2022-12-13T05:24:42.376Z,5.93
2022-12-13T05:27:24.724Z,6.22
2022-12-13T05:32:43.775Z,3.67
2022-12-13T05:35:22.560Z,4.93
2022-12-13T05:37:57.663Z,5.40
2022-12-13T05:43:21.766Z,3.53
2022-12-13T05:45:56.666Z,4.00
2022-12-13T05:48:30.479Z,3.78
2022-12-13T05:53:51.542Z,4.15
2022-12-13T05:56:28.644Z,4.07
2022-12-13T05:59:02.483Z,5.90
2022-12-13T06:04:23.092Z,4.20
2022-12-13T06:06:57.181Z,6.68
2022-12-13T06:12:30.977Z,6.13
2022-12-13T06:15:02.035Z,6.43
2022-12-13T06:17:37.535Z,3.33
2022-12-13T06:20:24.006Z,3.65
2022-12-13T06:23:00.264Z,2.38
2022-12-13T06:25:34.102Z,4.25
2022-12-13T06:30:42.975Z,2.38
2022-12-13T06:33:23.282Z,3.35
2022-12-13T06:36:00.764Z,4.50
2022-12-13T06:38:35.255Z,1.95
2022-12-13T06:41:18.601Z,3.05
2022-12-13T06:43:54.346Z,2.65
2022-12-13T06:46:28.537Z,5.38
2022-12-13T06:49:04.466Z,5.13
2022-12-13T06:51:39.174Z,2.05
2022-12-13T06:56:46.632Z,3.87
2022-12-13T06:59:22.131Z,2.45
2022-12-13T07:02:03.076Z,5.70
2022-12-13T07:04:38.109Z,1.98
2022-12-13T07:07:14.461Z,4.28
2022-12-13T07:09:48.959Z,3.65
2022-12-13T07:12:23.377Z,6.28
2022-12-13T07:14:58.756Z,5.03
2022-12-13T07:17:34.600Z,6.45
2022-12-13T07:20:10.559Z,6.40
2022-12-13T07:22:48.550Z,6.18
2022-12-13T07:25:26.778Z,3.78
2022-12-13T07:28:03.298Z,12.80
2022-12-13T07:30:41.056Z,5.65
2022-12-13T07:33:22.020Z,6.43
2022-12-13T07:36:02.021Z,12.48
2022-12-13T07:38:36.059Z,8.07
2022-12-13T07:43:44.237Z,7.75
2022-12-13T07:46:23.550Z,3.47
2022-12-13T07:49:07.111Z,10.32
2022-12-13T07:54:14.531Z,18.67
2022-12-13T07:59:28.835Z,7.93
2022-12-13T08:02:04.569Z,7.00
2022-12-13T08:04:38.720Z,7.68
2022-12-13T08:07:13.059Z,4.97
2022-12-13T08:09:52.545Z,11.88
2022-12-13T08:12:27.104Z,4.90
2022-12-13T08:15:01.026Z,16.40
2022-12-13T08:17:36.473Z,7.63
2022-12-13T08:20:11.622Z,9.85
2022-12-13T08:22:49.560Z,10.00
2022-12-13T08:25:23.649Z,9.82
2022-12-13T08:28:01.966Z,8.95
2022-12-13T08:30:36.502Z,10.13
2022-12-13T08:33:15.806Z,11.48
2022-12-13T08:35:50.458Z,8.02
2022-12-13T08:38:24.671Z,9.43
2022-12-13T08:41:00.622Z,7.55
2022-12-13T08:43:35.001Z,6.25
2022-12-13T08:46:09.169Z,8.93
2022-12-13T08:48:45.516Z,5.60
2022-12-13T08:51:25.595Z,6.43
2022-12-13T08:54:09.959Z,10.35
2022-12-13T08:56:45.219Z,5.47
2022-12-13T09:01:54.212Z,10.05
2022-12-13T09:04:32.335Z,20.88
2022-12-13T09:07:06.407Z,91.88
2022-12-13T09:12:30.308Z,137.93
2022-12-13T09:15:05.533Z,116.32
2022-12-13T09:17:57.085Z,105.30
2022-12-13T09:20:42.984Z,97.28
2022-12-13T09:23:23.635Z,93.88
2022-12-13T09:26:05.239Z,67.38
2022-12-13T09:28:44.348Z,44.53
2022-12-13T09:31:21.547Z,22.65
2022-12-13T09:33:59.743Z,15.32
2022-12-13T09:36:35.865Z,15.40
2022-12-13T09:39:12.676Z,14.57
2022-12-13T09:41:51.214Z,11.50
2022-12-13T09:44:42.500Z,14.05
2022-12-13T09:47:35.204Z,13.80
2022-12-13T09:50:17.451Z,12.55
2022-12-13T09:53:12.002Z,9.73
2022-12-13T09:56:10.961Z,13.43
2022-12-13T09:58:45.238Z,9.90
2022-12-13T10:01:22.454Z,7.30
2022-12-13T10:04:02.367Z,9.85
2022-12-13T10:06:40.059Z,9.38
2022-12-13T10:09:16.850Z,9.70
2022-12-13T10:11:52.181Z,7.55
2022-12-13T10:14:34.136Z,9.60
2022-12-13T10:17:11.534Z,8.48
2022-12-13T10:19:47.236Z,12.40
2022-12-13T10:22:22.971Z,7.68
2022-12-13T10:25:01.044Z,8.20
2022-12-13T10:27:37.924Z,19.70
2022-12-13T10:30:14.232Z,8.10
2022-12-13T10:32:55.180Z,4.93
2022-12-13T10:35:34.663Z,6.20
2022-12-13T10:38:31.655Z,7.13
2022-12-13T10:41:28.696Z,9.02
2022-12-13T10:44:22.919Z,6.50
2022-12-13T10:47:06.765Z,6.10
2022-12-13T10:52:31.244Z,5.18
2022-12-13T10:55:22.817Z,5.82
2022-12-13T10:58:02.150Z,5.68
2022-12-13T11:00:39.980Z,4.97
2022-12-13T11:03:29.871Z,7.07
2022-12-13T11:06:15.276Z,5.03
2022-12-13T11:08:50.861Z,6.20
2022-12-13T11:11:30.537Z,7.32
2022-12-13T11:14:05.910Z,6.97
2022-12-13T11:16:43.022Z,5.85
2022-12-13T11:19:25.221Z,4.70
2022-12-13T11:22:28.955Z,8.35
2022-12-13T11:25:08.021Z,3.95
2022-12-13T11:28:02.360Z,6.65
2022-12-13T11:30:45.775Z,4.13
2022-12-13T11:33:28.922Z,5.10
2022-12-13T11:36:13.062Z,5.30
2022-12-13T11:39:00.486Z,4.38
2022-12-13T11:41:39.757Z,8.27
2022-12-13T11:44:18.057Z,7.82
2022-12-13T11:46:56.350Z,7.55
2022-12-13T11:49:39.925Z,5.97
2022-12-13T11:52:20.054Z,18.73
2022-12-13T11:55:00.340Z,14.35
2022-12-13T11:57:44.188Z,23.25
2022-12-13T12:00:33.776Z,26.73
2022-12-13T12:03:22.274Z,23.42
2022-12-13T12:06:01.204Z,26.05
2022-12-13T12:08:39.884Z,27.92
2022-12-13T12:11:21.099Z,16.27
2022-12-13T12:13:58.545Z,23.50
2022-12-13T12:16:40.016Z,22.60
2022-12-13T12:19:18.203Z,20.13
2022-12-13T12:22:15.219Z,21.77
2022-12-13T12:25:20.295Z,17.77
2022-12-13T12:28:06.785Z,17.10
2022-12-13T12:30:51.125Z,15.95
2022-12-13T12:33:39.098Z,18.35
2022-12-13T12:36:39.653Z,19.83
2022-12-13T12:39:33.602Z,16.05
2022-12-13T12:42:44.613Z,13.38
2022-12-13T12:45:57.216Z,18.25
2022-12-13T12:49:03.149Z,10.00
2022-12-13T12:51:48.664Z,11.05
2022-12-13T12:54:45.527Z,9.73
2022-12-13T12:57:28.424Z,13.40
2022-12-13T13:00:06.585Z,12.68
2022-12-13T13:02:44.636Z,9.38
2022-12-13T13:05:24.184Z,10.45
2022-12-13T13:08:08.863Z,8.48
2022-12-13T13:10:50.070Z,14.75
2022-12-13T13:13:46.606Z,11.15
2022-12-13T13:16:42.931Z,9.80
2022-12-13T13:19:43.145Z,9.95
2022-12-13T13:22:43.055Z,8.73
2022-12-13T13:25:32.823Z,10.07
2022-12-13T13:28:16.957Z,9.10
2022-12-13T13:31:05.797Z,11.65
2022-12-13T13:33:48.546Z,9.45
2022-12-13T13:36:48.165Z,6.65
2022-12-13T13:39:40.802Z,6.78
2022-12-13T13:42:22.012Z,8.93
2022-12-13T13:45:22.761Z,9.77
2022-12-13T13:48:26.152Z,9.18
2022-12-13T13:52:08.509Z,8.57
2022-12-13T13:55:18.167Z,7.35
2022-12-13T13:58:22.977Z,5.95
2022-12-13T14:04:19.152Z,5.75
2022-12-13T14:07:44.789Z,7.13
2022-12-13T14:10:35.580Z,7.05
2022-12-13T14:13:54.997Z,6.18
2022-12-13T14:17:10.437Z,8.25
2022-12-13T14:20:24.830Z,6.10
2022-12-13T14:23:05.175Z,7.63
2022-12-13T14:26:11.012Z,5.47
2022-12-13T14:28:50.721Z,6.90
2022-12-13T14:31:27.664Z,8.05
2022-12-13T14:34:05.115Z,4.50
2022-12-13T14:36:39.438Z,9.68
2022-12-13T14:39:30.704Z,6.45
2022-12-13T14:42:24.510Z,7.30
2022-12-13T14:45:16.475Z,6.13
2022-12-13T14:47:51.834Z,6.80
2022-12-13T14:50:31.244Z,9.95
2022-12-13T14:53:07.147Z,11.05
2022-12-13T14:55:41.705Z,8.85
2022-12-13T14:58:21.710Z,11.98
2022-12-13T15:00:58.682Z,7.95
2022-12-13T15:03:35.471Z,11.50
2022-12-13T15:06:12.819Z,11.60
2022-12-13T15:08:49.089Z,8.35
2022-12-13T15:11:27.681Z,11.55
2022-12-13T15:14:01.815Z,7.07
2022-12-13T15:16:37.215Z,8.52
2022-12-13T15:19:30.943Z,4.93
2022-12-13T15:22:17.613Z,10.07
2022-12-13T15:24:55.963Z,9.13
2022-12-13T15:27:42.362Z,9.05
2022-12-13T15:30:22.536Z,8.32
2022-12-13T15:33:08.089Z,13.98
2022-12-13T15:35:42.214Z,8.35
2022-12-13T15:38:28.920Z,9.65
2022-12-13T15:41:05.081Z,8.18
2022-12-13T15:43:50.793Z,14.63
2022-12-13T15:46:29.692Z,11.93
2022-12-13T15:49:04.477Z,8.50
2022-12-13T15:51:55.606Z,8.98
2022-12-13T15:54:31.224Z,7.55
2022-12-13T15:57:14.803Z,8.93
2022-12-13T15:59:49.493Z,11.30
2022-12-13T16:02:25.566Z,9.55
2022-12-13T16:05:08.175Z,10.30
2022-12-13T16:07:42.083Z,13.25
2022-12-13T16:12:59.122Z,14.90
2022-12-13T16:15:48.621Z,16.63
2022-12-13T16:18:26.860Z,12.18
2022-12-13T16:21:01.359Z,23.60
2022-12-13T16:23:35.257Z,21.15
2022-12-13T16:26:13.588Z,26.27
2022-12-13T16:28:47.598Z,74.75
2022-12-13T16:31:23.803Z,61.33
2022-12-13T16:33:57.913Z,55.00
2022-12-13T16:36:32.176Z,55.53
2022-12-13T16:39:07.833Z,49.53
2022-12-13T16:41:46.156Z,43.03
2022-12-13T16:44:24.176Z,48.78
2022-12-13T16:47:11.911Z,41.45
2022-12-13T16:49:51.336Z,45.28
2022-12-13T16:52:25.508Z,42.35
2022-12-13T16:55:00.750Z,34.33
2022-12-13T16:57:36.097Z,37.17
2022-12-13T17:00:14.313Z,39.78
2022-12-13T17:02:48.266Z,31.55
2022-12-13T17:05:22.725Z,33.22
2022-12-13T17:07:57.591Z,45.70
2022-12-13T17:10:32.421Z,43.72
2022-12-13T17:13:07.808Z,38.75
2022-12-13T17:15:41.849Z,31.70
2022-12-13T17:18:16.812Z,28.98
2022-12-13T17:20:58.405Z,29.27
2022-12-13T17:23:33.054Z,30.95
2022-12-13T17:26:08.060Z,29.48
2022-12-13T17:28:43.375Z,30.38
2022-12-13T17:31:17.412Z,32.20
2022-12-13T17:33:52.537Z,27.95
2022-12-13T17:36:27.035Z,33.25
2022-12-13T17:39:01.029Z,27.02
2022-12-13T17:41:35.027Z,29.13
2022-12-13T17:46:44.240Z,23.75
2022-12-13T17:49:28.683Z,25.10
2022-12-13T17:52:03.026Z,24.02
2022-12-13T17:54:36.867Z,24.92
2022-12-13T17:57:12.025Z,21.65
2022-12-13T17:59:48.418Z,26.52
2022-12-13T18:02:23.166Z,20.33
2022-12-13T18:04:57.066Z,25.48
2022-12-13T18:10:04.554Z,22.87
2022-12-13T18:12:38.580Z,25.40
2022-12-13T18:15:13.955Z,20.08
2022-12-13T18:18:10.816Z,22.48
2022-12-13T18:20:42.138Z,21.98
2022-12-13T18:23:16.652Z,20.00
2022-12-13T18:25:53.067Z,24.08
2022-12-13T18:28:27.013Z,17.58
2022-12-13T18:31:06.109Z,18.13
2022-12-13T18:33:44.455Z,21.13
2022-12-13T18:36:22.941Z,18.95
2022-12-13T18:38:57.133Z,21.50
2022-12-13T18:41:32.564Z,19.92
2022-12-13T18:44:08.356Z,18.63
2022-12-13T18:46:46.117Z,17.75
2022-12-13T18:49:20.551Z,18.23
2022-12-13T18:51:54.576Z,20.38
2022-12-13T18:57:02.500Z,21.17
2022-12-13T18:59:36.576Z,17.35
2022-12-13T19:02:13.901Z,22.45
2022-12-13T19:04:54.872Z,14.80
2022-12-13T19:07:29.699Z,19.15
2022-12-13T19:10:04.135Z,16.30
2022-12-13T19:12:38.390Z,18.30
2022-12-13T19:15:13.120Z,18.05
2022-12-13T19:17:48.572Z,22.02
2022-12-13T19:20:22.675Z,17.08
2022-12-13T19:22:56.758Z,21.45
2022-12-13T19:25:30.828Z,17.05
2022-12-13T19:28:05.518Z,18.23
2022-12-13T19:30:42.896Z,17.15
2022-12-13T19:33:18.685Z,14.30
2022-12-13T19:35:53.173Z,16.05
2022-12-13T19:38:29.731Z,24.15
2022-12-13T19:41:10.102Z,21.50
2022-12-13T19:43:50.601Z,17.63
2022-12-13T19:46:28.555Z,17.80
2022-12-13T19:49:06.972Z,17.30
2022-12-13T19:51:41.629Z,18.83
2022-12-13T19:54:15.479Z,18.75
2022-12-13T19:59:25.221Z,20.98
2022-12-13T20:01:59.494Z,22.73
2022-12-13T20:04:35.118Z,16.00
2022-12-13T20:07:09.632Z,20.27
2022-12-13T20:09:43.654Z,19.23
2022-12-13T20:12:17.560Z,20.23
2022-12-13T20:17:25.554Z,18.08
2022-12-13T20:20:01.288Z,20.17
2022-12-13T20:22:35.751Z,21.65
2022-12-13T20:25:13.595Z,19.40
2022-12-13T20:27:48.013Z,23.95
2022-12-13T20:30:22.348Z,19.98
2022-12-13T20:32:56.481Z,20.70
2022-12-13T20:35:31.951Z,18.38
2022-12-13T20:38:06.033Z,19.70
2022-12-13T20:40:39.923Z,23.42
2022-12-13T20:43:13.928Z,24.40
2022-12-13T20:45:48.121Z,20.02
2022-12-13T20:48:22.243Z,23.25
2022-12-13T20:51:02.215Z,19.80
2022-12-13T20:53:37.867Z,19.75
2022-12-13T20:56:13.128Z,21.58
2022-12-13T20:58:47.691Z,20.63
2022-12-13T21:01:23.772Z,21.17
2022-12-13T21:04:00.383Z,21.27
2022-12-13T21:06:37.609Z,19.80
2022-12-13T21:09:12.830Z,22.65
2022-12-13T21:11:49.127Z,18.58
2022-12-13T21:14:25.306Z,21.73
2022-12-13T21:17:09.803Z,21.42
2022-12-13T21:19:43.758Z,19.20
2022-12-13T21:22:24.409Z,19.63
2022-12-13T21:24:58.302Z,18.38
2022-12-13T21:27:32.213Z,21.48
2022-12-13T21:30:07.104Z,18.83
2022-12-13T21:32:41.024Z,23.15
2022-12-13T21:37:49.955Z,24.88
2022-12-13T21:40:25.181Z,21.38
2022-12-13T21:42:59.349Z,22.27
2022-12-13T21:45:35.055Z,22.13
2022-12-13T21:48:09.024Z,25.77
2022-12-13T21:50:42.883Z,20.23
2022-12-13T21:53:18.302Z,19.15
2022-12-13T21:55:53.117Z,21.25
2022-12-13T22:01:23.466Z,24.35
2022-12-13T22:03:57.456Z,20.90
2022-12-13T22:09:06.691Z,26.95
2022-12-13T22:11:40.962Z,22.15
2022-12-13T22:14:14.835Z,21.92
2022-12-13T22:19:22.406Z,22.58
2022-12-13T22:21:56.486Z,19.38
2022-12-13T22:24:32.191Z,17.77
2022-12-13T22:27:06.204Z,26.85
2022-12-13T22:29:40.096Z,20.65
2022-12-13T22:32:14.003Z,21.17
2022-12-13T22:34:47.888Z,19.58
2022-12-13T22:39:56.773Z,22.67
2022-12-13T22:42:30.595Z,20.92
2022-12-13T22:47:42.402Z,21.80
2022-12-13T22:50:17.389Z,16.83
2022-12-13T22:52:52.879Z,18.50
2022-12-13T22:58:01.630Z,19.20
2022-12-13T23:03:09.162Z,18.73
2022-12-13T23:05:43.345Z,22.17
2022-12-13T23:08:17.220Z,19.48
2022-12-13T23:13:39.782Z,18.23
2022-12-13T23:18:47.600Z,20.70
2022-12-13T23:21:23.160Z,16.80
2022-12-13T23:23:58.044Z,17.73
2022-12-13T23:26:34.640Z,19.05
2022-12-13T23:29:09.514Z,19.75
2022-12-13T23:31:48.589Z,21.13
2022-12-13T23:34:22.863Z,20.05
2022-12-13T23:39:30.334Z,17.90
2022-12-13T23:42:05.880Z,17.00
2022-12-13T23:44:39.801Z,17.05
2022-12-13T23:47:13.646Z,18.30
2022-12-13T23:52:22.354Z,19.25
2022-12-13T23:57:31.261Z,19.47
